首页
METAR-TAF:

METAR-TAF

机场 :

真纳国际机场

卡拉奇, 巴基斯坦

纬度: 24-54N, 经度: 067-08E, 海拔: 21米

当前天气观测

该预报发布于18分钟前的16:57 UTC
风速5节,风向西转西南
温度 21°C
湿度 78%
气压 1016 hPa
能見度: 6000
少量云层高于2000英尺

METAR: OPKC 161657Z 24005KT 6000 FEW020 21/17 Q1016 NOSIG

时间: 22:15 (17:15 UTC)

预报

该预报发布于4小时和45分钟前的12:30 UTC
预报有效从16日的 15点(UTC)到 16日的 24点(UTC)
风速7节,风向西
能見度: 4000

TAF: OPKC 161230Z 1615/1624 28007KT 4000 HZ NSC

超过4000个机场的气象观测和天气预报(METAR&TAF报告)。

可查询的气象台以黄色和红色小点在地图上表示。

将鼠标移到小点上方,可查看气象台名称。

然后点击查看天气观测和预报。

如需切换地图:点击带黑十字的绿色按钮放大地图;点击带横线的绿色按钮缩小地图;或者点击绿色箭头查看邻近地区的地图。


METAR-TAF: